Time;durP1;ratioP1;P1;durP2;ratioP2;P2;SDS_P1;SDS_P2;PMS_P1;PMS_P2;Temp;Humidity;BMP_temperature;BMP_pressure;BME280_temperature;BME280_humidity;BME280_pressure;Samples;Min_cycle;Max_cycle;Signal;HPM_P1;HPM_P2
2022/07/24 00:00:30;;;;;;;19.00;12.68;;;24.90;98.60;;;;;;5053411;28;20479;-76
2022/07/24 00:02:56;;;;;;;23.55;13.13;;;24.90;98.80;;;;;;5053118;28;20461;-75
2022/07/24 00:05:22;;;;;;;21.00;13.38;;;24.80;99.80;;;;;;5053438;28;20086;-75
2022/07/24 00:07:48;;;;;;;23.38;13.70;;;24.70;99.90;;;;;;5053449;28;20025;-75
2022/07/24 00:10:14;;;;;;;25.63;14.70;;;24.70;99.90;;;;;;5053153;28;20029;-75
2022/07/24 00:12:40;;;;;;;20.95;14.07;;;24.70;99.90;;;;;;5053250;28;20029;-76
2022/07/24 00:15:06;;;;;;;27.85;13.75;;;24.70;99.90;;;;;;5053373;28;20507;-75
2022/07/24 00:17:32;;;;;;;19.52;13.18;;;24.70;99.90;;;;;;5053207;28;20096;-76
2022/07/24 00:19:58;;;;;;;30.25;12.77;;;24.80;99.90;;;;;;5053093;28;20543;-74
2022/07/24 00:22:24;;;;;;;18.63;13.68;;;24.80;99.90;;;;;;5053671;28;20483;-76
2022/07/24 00:24:50;;;;;;;21.52;13.82;;;24.80;99.90;;;;;;5052819;28;20021;-75
2022/07/24 00:27:16;;;;;;;18.25;13.45;;;24.80;99.90;;;;;;5052858;28;20021;-76
2022/07/24 00:29:41;;;;;;;20.45;12.95;;;24.80;99.90;;;;;;5034579;28;20502;-76
2022/07/24 00:32:07;;;;;;;21.02;14.77;;;24.90;99.90;;;;;;5053018;28;20047;-76
2022/07/24 00:34:33;;;;;;;19.60;13.73;;;24.90;99.90;;;;;;5053128;28;20360;-76
2022/07/24 00:36:59;;;;;;;21.10;13.88;;;24.80;99.90;;;;;;5052656;28;20021;-72
2022/07/24 00:39:25;;;;;;;19.40;12.55;;;24.80;99.90;;;;;;5052718;28;20029;-76
2022/07/24 00:41:54;;;;;;;18.33;11.43;;;24.70;99.90;;;;;;5052591;28;20021;-76
2022/07/24 00:44:20;;;;;;;19.88;14.10;;;24.80;99.70;;;;;;5052760;28;20025;-76
2022/07/24 00:46:46;;;;;;;25.55;13.60;;;24.80;99.90;;;;;;5052783;28;20167;-75
2022/07/24 00:49:15;;;;;;;17.40;12.43;;;24.70;99.90;;;;;;5052635;28;20487;-76
2022/07/24 00:51:43;;;;;;;19.92;13.43;;;24.70;99.90;;;;;;5052613;28;20028;-76
2022/07/24 00:54:11;;;;;;;18.33;12.70;;;24.70;99.90;;;;;;5052078;28;20218;-76
2022/07/24 00:56:37;;;;;;;17.23;11.35;;;24.60;99.90;;;;;;5052794;28;20502;-74
2022/07/24 00:59:04;;;;;;;19.27;12.10;;;24.50;99.90;;;;;;5052412;28;20013;-74
2022/07/24 01:01:31;;;;;;;18.00;12.55;;;24.60;99.90;;;;;;5052316;28;20032;-75
2022/07/24 01:03:57;;;;;;;20.80;12.55;;;24.70;99.90;;;;;;5052187;28;20036;-75
2022/07/24 01:06:24;;;;;;;18.95;13.45;;;24.70;99.90;;;;;;5052219;28;20457;-76
2022/07/24 01:08:50;;;;;;;19.17;13.02;;;24.70;99.90;;;;;;5052255;28;20031;-73
2022/07/24 01:11:17;;;;;;;21.95;13.38;;;24.60;99.90;;;;;;5052248;28;20033;-76
2022/07/24 01:13:43;;;;;;;20.30;13.70;;;24.60;99.90;;;;;;5051951;28;20115;-75
2022/07/24 01:16:09;;;;;;;18.60;12.73;;;24.50;99.90;;;;;;5052156;28;20060;-75
2022/07/24 01:18:36;;;;;;;22.10;12.75;;;24.50;99.90;;;;;;5052075;28;20029;-76
2022/07/24 01:21:03;;;;;;;18.45;12.50;;;24.50;99.90;;;;;;5052318;28;20021;-75
2022/07/24 01:23:29;;;;;;;20.70;13.30;;;24.30;99.90;;;;;;5052197;28;20108;-75
2022/07/24 01:25:55;;;;;;;18.50;13.00;;;24.20;99.90;;;;;;5052089;28;20481;-76
2022/07/24 01:28:21;;;;;;;22.00;13.05;;;24.30;99.90;;;;;;5052334;28;20475;-75
2022/07/24 01:30:47;;;;;;;22.88;13.55;;;24.20;99.90;;;;;;5052183;28;20028;-76
2022/07/24 01:33:13;;;;;;;18.92;13.48;;;24.20;99.90;;;;;;5051970;28;20124;-76
2022/07/24 01:35:41;;;;;;;19.08;13.48;;;24.00;99.90;;;;;;5051970;28;20028;-75
2022/07/24 01:38:07;;;;;;;19.20;13.80;;;24.00;99.90;;;;;;5051997;28;20021;-76
2022/07/24 01:40:33;;;;;;;17.73;13.05;;;23.90;99.90;;;;;;5052951;28;20033;-76
2022/07/24 01:42:58;;;;;;;17.45;12.48;;;23.90;99.90;;;;;;5056155;28;20014;-76
2022/07/24 01:45:24;;;;;;;19.42;12.25;;;23.90;99.90;;;;;;5055833;28;20035;-76
2022/07/24 01:47:50;;;;;;;18.15;12.52;;;23.90;99.90;;;;;;5056105;28;20091;-75
2022/07/24 01:50:16;;;;;;;19.10;13.65;;;23.90;99.90;;;;;;5056038;28;20086;-75
2022/07/24 01:52:42;;;;;;;19.42;12.27;;;23.90;99.90;;;;;;5056202;28;20082;-73
2022/07/24 01:55:09;;;;;;;19.08;12.82;;;23.90;99.90;;;;;;5055914;28;20025;-76
2022/07/24 01:57:35;;;;;;;19.10;12.45;;;23.90;99.90;;;;;;5055806;28;20378;-75
2022/07/24 02:00:03;;;;;;;20.00;12.00;;;23.90;99.90;;;;;;5055739;28;20021;-74
2022/07/24 02:02:40;;;;;;;18.10;12.52;;;24.10;99.90;;;;;;5055539;28;20092;-76
2022/07/24 02:05:07;;;;;;;16.23;12.65;;;24.10;99.90;;;;;;5055883;28;20479;-76
2022/07/24 02:07:33;;;;;;;17.17;12.98;;;24.10;99.90;;;;;;5056102;28;20056;-75
2022/07/24 02:09:59;;;;;;;15.95;11.65;;;24.10;99.90;;;;;;5055635;28;20059;-76
2022/07/24 02:12:25;;;;;;;17.52;12.43;;;24.10;99.90;;;;;;5055450;28;20021;-75
2022/07/24 02:14:51;;;;;;;19.35;13.15;;;24.10;99.90;;;;;;5055553;28;20053;-69
2022/07/24 02:17:16;;;;;;;18.77;12.65;;;24.10;99.90;;;;;;5054302;28;20507;-76
2022/07/24 02:19:42;;;;;;;17.17;12.07;;;24.10;99.90;;;;;;5051501;28;20125;-76
2022/07/24 02:22:08;;;;;;;16.67;11.52;;;24.20;99.90;;;;;;5054584;28;20017;-76
2022/07/24 02:24:34;;;;;;;19.33;12.43;;;24.20;99.90;;;;;;5053979;28;20029;-73
2022/07/24 02:27:00;;;;;;;19.73;11.15;;;24.20;99.90;;;;;;5054958;28;20139;-76
2022/07/24 02:29:25;;;;;;;19.25;13.32;;;24.20;99.90;;;;;;5055324;28;20024;-76
2022/07/24 02:31:51;;;;;;;16.60;12.07;;;24.30;99.90;;;;;;5054892;28;20021;-77
2022/07/24 02:34:17;;;;;;;19.75;13.20;;;24.30;99.90;;;;;;5052432;28;20048;-78
2022/07/24 02:36:43;;;;;;;18.35;12.88;;;24.00;99.90;;;;;;5048298;28;20025;-75
2022/07/24 02:39:09;;;;;;;26.38;12.35;;;24.00;99.90;;;;;;5052263;28;20121;-77
2022/07/24 02:41:34;;;;;;;21.45;12.70;;;24.00;99.90;;;;;;5045694;28;20066;-72
2022/07/24 02:44:00;;;;;;;16.95;11.85;;;24.00;99.90;;;;;;5039144;28;20049;-75
2022/07/24 02:46:26;;;;;;;16.50;11.98;;;23.90;99.90;;;;;;5037099;28;20056;-76
2022/07/24 02:48:52;;;;;;;15.95;11.68;;;23.90;99.90;;;;;;5033339;28;20554;-74
2022/07/24 02:51:18;;;;;;;19.42;11.48;;;23.90;99.90;;;;;;5033098;28;20480;-77
2022/07/24 02:53:43;;;;;;;15.20;10.63;;;24.00;99.90;;;;;;5033821;28;20551;-76
2022/07/24 02:56:09;;;;;;;16.45;11.18;;;23.90;99.90;;;;;;5032873;28;20118;-66
2022/07/24 02:58:35;;;;;;;16.33;11.65;;;23.90;99.90;;;;;;5034387;28;20030;-73
2022/07/24 03:01:01;;;;;;;15.48;10.88;;;23.90;99.90;;;;;;5033357;28;20021;-76
2022/07/24 03:03:27;;;;;;;21.08;12.20;;;24.00;99.90;;;;;;5032846;28;20103;-74
2022/07/24 03:05:53;;;;;;;16.38;11.02;;;24.00;99.90;;;;;;5030964;28;20017;-76
2022/07/24 03:08:18;;;;;;;16.85;11.65;;;24.10;99.90;;;;;;5032177;28;20033;-76
2022/07/24 03:10:44;;;;;;;20.27;12.43;;;24.10;99.90;;;;;;5033252;28;20490;-76
2022/07/24 03:13:12;;;;;;;16.73;11.50;;;24.20;99.90;;;;;;5032751;28;20037;-74
2022/07/24 03:15:38;;;;;;;18.35;11.77;;;24.10;99.90;;;;;;5030161;28;20013;-76
2022/07/24 03:18:04;;;;;;;20.90;11.38;;;24.20;99.90;;;;;;5038953;28;20025;-76
2022/07/24 03:20:30;;;;;;;15.23;10.75;;;24.20;99.90;;;;;;5052557;28;20033;-72
2022/07/24 03:22:56;;;;;;;16.75;10.95;;;24.20;99.90;;;;;;5049695;28;20029;-76
2022/07/24 03:25:22;;;;;;;14.88;11.30;;;24.20;99.90;;;;;;5042943;28;20475;-77
2022/07/24 03:27:49;;;;;;;22.52;12.07;;;24.10;99.90;;;;;;5042071;28;20032;-76
2022/07/24 03:30:16;;;;;;;22.83;11.77;;;24.00;99.90;;;;;;5051937;28;20059;-75
2022/07/24 03:32:42;;;;;;;14.88;10.93;;;24.00;99.90;;;;;;5053468;28;20048;-76
2022/07/24 03:35:08;;;;;;;21.00;12.13;;;24.00;99.90;;;;;;5053913;28;20096;-76
2022/07/24 03:37:34;;;;;;;16.88;11.68;;;23.90;99.90;;;;;;5053282;28;20026;-76
2022/07/24 03:40:01;;;;;;;17.08;11.38;;;23.90;99.90;;;;;;5053746;28;20028;-76
2022/07/24 03:42:27;;;;;;;20.77;12.23;;;23.90;99.90;;;;;;5053730;28;20072;-76
2022/07/24 03:44:53;;;;;;;18.10;10.65;;;24.10;99.90;;;;;;5053499;28;20027;-75
2022/07/24 03:47:19;;;;;;;19.30;10.07;;;24.20;99.90;;;;;;5034952;28;20045;-74
2022/07/24 03:49:45;;;;;;;21.60;10.98;;;24.50;99.70;;;;;;5052430;28;20098;-70
2022/07/24 03:52:11;;;;;;;17.67;10.48;;;24.60;99.30;;;;;;5046981;28;20049;-74
2022/07/24 03:54:37;;;;;;;24.52;10.40;;;24.70;98.70;;;;;;5047137;28;20056;-75
2022/07/24 03:57:03;;;;;;;14.38;9.50;;;24.70;98.60;;;;;;5053727;28;20494;-76
2022/07/24 03:59:28;;;;;;;17.45;9.98;;;24.70;98.80;;;;;;5053467;28;20025;-76
2022/07/24 04:01:54;;;;;;;16.27;9.93;;;24.50;99.10;;;;;;5052973;28;20044;-77
2022/07/24 04:04:20;;;;;;;16.52;9.90;;;24.40;99.30;;;;;;5051642;28;20116;-75
2022/07/24 04:06:46;;;;;;;19.60;10.55;;;24.20;99.70;;;;;;5052865;28;20024;-74
2022/07/24 04:09:13;;;;;;;22.15;10.65;;;24.20;99.90;;;;;;5041137;28;20021;-77
2022/07/24 04:11:39;;;;;;;26.23;10.02;;;24.10;99.90;;;;;;5045765;28;20056;-77
2022/07/24 04:14:05;;;;;;;15.55;10.32;;;24.10;99.90;;;;;;5049169;28;20076;-77
2022/07/24 04:16:32;;;;;;;20.27;11.48;;;24.40;99.90;;;;;;5053122;28;20017;-77
2022/07/24 04:18:58;;;;;;;16.80;9.60;;;24.60;99.90;;;;;;5052377;28;20025;-77
2022/07/24 04:21:23;;;;;;;15.95;9.57;;;24.40;99.90;;;;;;5053226;28;20028;-77
2022/07/24 04:23:49;;;;;;;23.38;10.25;;;24.20;99.90;;;;;;5053308;28;20017;-77
2022/07/24 04:26:15;;;;;;;18.30;11.25;;;24.40;99.90;;;;;;5050933;28;20028;-78
2022/07/24 04:28:41;;;;;;;16.77;10.38;;;24.80;99.90;;;;;;5050023;28;20100;-77
2022/07/24 04:31:08;;;;;;;17.30;10.57;;;25.50;99.50;;;;;;5052969;28;20468;-77
2022/07/24 04:33:34;;;;;;;16.80;10.55;;;25.90;97.40;;;;;;5053168;28;20033;-78
2022/07/24 04:35:59;;;;;;;21.98;10.73;;;26.20;96.30;;;;;;5052939;28;20498;-78
2022/07/24 04:38:25;;;;;;;18.70;10.63;;;26.30;95.60;;;;;;5050306;28;20115;-77
2022/07/24 04:40:51;;;;;;;15.80;10.80;;;26.50;95.50;;;;;;5052992;28;20456;-77
2022/07/24 04:43:17;;;;;;;16.27;10.18;;;26.50;94.60;;;;;;5052975;28;20033;-77
2022/07/24 04:45:44;;;;;;;22.02;10.55;;;26.60;94.30;;;;;;5052593;28;20070;-77
2022/07/24 04:48:09;;;;;;;17.38;10.38;;;26.60;94.00;;;;;;5052742;28;20090;-77
2022/07/24 04:50:35;;;;;;;14.57;10.02;;;27.10;93.50;;;;;;5052683;28;20028;-78
2022/07/24 04:53:01;;;;;;;19.27;11.80;;;27.20;92.70;;;;;;5052652;28;20104;-78
2022/07/24 04:55:27;;;;;;;20.60;11.35;;;27.20;92.40;;;;;;5052703;28;20025;-78
2022/07/24 04:57:53;;;;;;;21.10;10.90;;;27.70;91.90;;;;;;5052927;28;20013;-76
2022/07/24 05:00:19;;;;;;;21.90;10.90;;;27.90;91.10;;;;;;5050258;28;20094;-77
2022/07/24 05:02:45;;;;;;;19.63;11.95;;;28.00;90.60;;;;;;5051710;28;20044;-78
2022/07/24 05:05:11;;;;;;;20.95;10.25;;;28.10;90.20;;;;;;5052886;28;20029;-77
2022/07/24 05:07:37;;;;;;;21.48;10.10;;;27.80;90.10;;;;;;5052362;28;20028;-76
2022/07/24 05:10:04;;;;;;;21.60;11.05;;;27.50;90.70;;;;;;5052701;28;20033;-78
2022/07/24 05:12:30;;;;;;;20.67;10.95;;;27.10;91.70;;;;;;5052912;28;20056;-77
2022/07/24 05:14:56;;;;;;;19.73;10.75;;;26.90;92.50;;;;;;5052790;28;20068;-77
2022/07/24 05:17:22;;;;;;;18.85;11.27;;;26.80;93.10;;;;;;5053949;28;20029;-78
2022/07/24 05:19:48;;;;;;;19.75;11.52;;;26.90;93.30;;;;;;5053212;28;20033;-78
2022/07/24 05:22:13;;;;;;;18.33;10.43;;;27.00;93.70;;;;;;5053132;28;20021;-77
2022/07/24 05:24:39;;;;;;;16.42;9.48;;;26.80;93.20;;;;;;5052796;28;20032;-78
2022/07/24 05:27:05;;;;;;;16.55;10.82;;;26.70;93.60;;;;;;5052431;28;20036;-77
2022/07/24 05:29:31;;;;;;;14.48;9.23;;;26.80;94.00;;;;;;5053605;28;20021;-77
2022/07/24 05:31:57;;;;;;;17.52;9.02;;;26.80;94.00;;;;;;5052820;28;20387;-75
2022/07/24 05:34:23;;;;;;;19.08;9.13;;;26.90;93.60;;;;;;5052353;28;20037;-77
2022/07/24 05:36:49;;;;;;;14.93;8.73;;;26.90;93.50;;;;;;5053324;28;20082;-77
2022/07/24 05:39:15;;;;;;;16.38;8.23;;;27.00;93.20;;;;;;5052482;28;20032;-78
2022/07/24 05:41:42;;;;;;;13.95;8.70;;;27.00;93.20;;;;;;5052669;28;20032;-77
2022/07/24 05:44:08;;;;;;;13.82;8.15;;;26.90;93.10;;;;;;5042242;28;20025;-78
2022/07/24 05:46:34;;;;;;;16.02;8.73;;;26.60;93.60;;;;;;5051727;28;20096;-77
2022/07/24 05:48:59;;;;;;;13.98;7.82;;;26.80;94.00;;;;;;5040639;28;20426;-79
2022/07/24 05:51:25;;;;;;;13.43;7.65;;;26.90;93.70;;;;;;5048456;28;20024;-76
2022/07/24 05:53:51;;;;;;;13.25;7.35;;;27.00;93.70;;;;;;5052588;28;20034;-78
2022/07/24 05:56:17;;;;;;;14.07;6.97;;;27.30;93.20;;;;;;5048175;28;20028;-77
2022/07/24 05:58:43;;;;;;;13.55;7.32;;;27.40;92.80;;;;;;5039620;28;20033;-78
2022/07/24 06:01:09;;;;;;;15.13;7.30;;;27.60;92.30;;;;;;5053668;28;20582;-77
2022/07/24 06:03:34;;;;;;;15.73;7.07;;;27.50;92.20;;;;;;5053025;28;20064;-77
2022/07/24 06:06:00;;;;;;;17.25;7.20;;;27.50;91.30;;;;;;5051721;28;20075;-77
2022/07/24 06:08:26;;;;;;;11.25;6.95;;;27.50;91.30;;;;;;5052317;28;20079;-78
2022/07/24 06:10:52;;;;;;;13.45;6.82;;;27.40;91.10;;;;;;5049972;28;20013;-78
2022/07/24 06:13:18;;;;;;;12.60;6.22;;;27.50;90.70;;;;;;5044716;28;20119;-78
2022/07/24 06:15:44;;;;;;;14.30;6.72;;;27.70;90.60;;;;;;5050199;28;20025;-77
2022/07/24 06:18:09;;;;;;;11.63;6.25;;;27.80;91.00;;;;;;5051240;28;20486;-77
2022/07/24 06:20:35;;;;;;;12.25;7.07;;;27.90;90.30;;;;;;5048914;28;20017;-78
2022/07/24 06:23:01;;;;;;;13.23;6.47;;;27.80;90.20;;;;;;5052658;28;20033;-77
2022/07/24 06:25:27;;;;;;;13.70;6.13;;;27.80;90.00;;;;;;5053152;28;20379;-78
2022/07/24 06:27:57;;;;;;;13.48;7.10;;;27.90;90.20;;;;;;5046762;28;20025;-77
2022/07/24 06:30:25;;;;;;;12.40;6.30;;;28.00;90.00;;;;;;5056073;28;20032;-75
2022/07/24 06:32:54;;;;;;;14.25;6.13;;;28.30;89.10;;;;;;5055397;28;20394;-78
2022/07/24 06:35:20;;;;;;;19.95;7.05;;;28.40;87.70;;;;;;5055614;28;20063;-78
2022/07/24 06:37:46;;;;;;;13.50;6.60;;;28.50;88.70;;;;;;5055494;28;20428;-78
2022/07/24 06:40:13;;;;;;;15.45;6.72;;;28.70;87.20;;;;;;5054907;28;20021;-77
2022/07/24 06:42:39;;;;;;;12.70;7.40;;;;;;;;;;5051312;28;20017;-78
2022/07/24 06:45:05;;;;;;;10.57;6.20;;;29.00;85.60;;;;;;5046549;28;20067;-77
2022/07/24 06:47:31;;;;;;;12.65;6.78;;;28.90;86.10;;;;;;5054471;28;20048;-79
2022/07/24 06:49:57;;;;;;;12.13;6.78;;;29.10;85.20;;;;;;5054992;28;20436;-79
2022/07/24 06:52:23;;;;;;;10.75;5.53;;;29.30;84.80;;;;;;5055241;28;20041;-78
2022/07/24 06:54:50;;;;;;;11.93;5.82;;;29.20;84.10;;;;;;5055510;28;20028;-79
2022/07/24 06:57:16;;;;;;;11.70;6.35;;;29.30;84.10;;;;;;5054188;28;20375;-80
2022/07/24 06:59:42;;;;;;;13.57;6.40;;;29.50;83.90;;;;;;5053410;28;20075;-77
2022/07/24 07:02:08;;;;;;;11.90;6.93;;;29.50;83.20;;;;;;5046561;28;20072;-78
2022/07/24 07:04:34;;;;;;;11.73;5.97;;;29.30;83.40;;;;;;5054894;28;20100;-78
2022/07/24 07:07:01;;;;;;;9.50;5.40;;;29.00;84.40;;;;;;5054885;28;20029;-79
2022/07/24 07:09:27;;;;;;;12.68;6.25;;;28.90;84.00;;;;;;5036602;28;20040;-74
2022/07/24 07:11:52;;;;;;;9.93;6.22;;;28.70;85.40;;;;;;5053565;28;20021;-77
2022/07/24 07:14:18;;;;;;;10.35;6.05;;;28.50;87.10;;;;;;5044173;28;20033;-79
2022/07/24 07:16:44;;;;;;;12.43;6.53;;;28.30;87.50;;;;;;5054872;28;20029;-79
2022/07/24 07:19:10;;;;;;;14.43;6.45;;;28.60;87.60;;;;;;5053729;28;20070;-78
2022/07/24 07:21:37;;;;;;;10.68;5.55;;;28.90;86.40;;;;;;5054439;28;20070;-78
2022/07/24 07:24:04;;;;;;;12.77;6.72;;;29.00;86.70;;;;;;5054277;28;20083;-78
2022/07/24 07:26:30;;;;;;;9.55;5.88;;;29.30;85.90;;;;;;5054386;28;20025;-76
2022/07/24 07:28:56;;;;;;;10.45;5.68;;;29.50;85.10;;;;;;5052097;28;20490;-78
2022/07/24 07:31:24;;;;;;;14.48;5.63;;;29.40;84.80;;;;;;5051352;28;20032;-76
2022/07/24 07:33:50;;;;;;;20.70;6.43;;;29.60;82.80;;;;;;5044110;28;20120;-79
2022/07/24 07:36:16;;;;;;;11.45;5.72;;;29.80;83.20;;;;;;5049915;28;20032;-80
2022/07/24 07:38:42;;;;;;;10.05;5.60;;;29.90;82.40;;;;;;5053372;28;20104;-77
2022/07/24 07:41:08;;;;;;;9.73;5.85;;;30.10;81.40;;;;;;5049138;28;20112;-74
2022/07/24 07:43:34;;;;;;;11.98;6.25;;;30.20;81.70;;;;;;5048458;28;20044;-79
2022/07/24 07:45:59;;;;;;;13.32;6.60;;;30.20;79.90;;;;;;5055727;28;20021;-76
2022/07/24 07:48:26;;;;;;;18.10;5.82;;;30.60;82.40;;;;;;5056980;28;20041;-79
2022/07/24 07:50:52;;;;;;;9.88;5.78;;;30.60;78.80;;;;;;5036901;28;20435;-77
2022/07/24 07:53:18;;;;;;;9.85;5.60;;;30.70;79.70;;;;;;5052879;28;20090;-77
2022/07/24 07:55:48;;;;;;;8.90;6.15;;;30.50;79.00;;;;;;5050071;28;20009;-78
2022/07/24 07:58:15;;;;;;;10.52;6.10;;;30.60;79.40;;;;;;5043184;28;20052;-74
2022/07/24 08:00:41;;;;;;;14.77;6.40;;;30.60;79.30;;;;;;5042595;28;20047;-77
2022/07/24 08:03:07;;;;;;;13.27;6.35;;;30.50;80.30;;;;;;5046088;28;20491;-77
2022/07/24 08:05:32;;;;;;;10.35;5.85;;;30.40;80.50;;;;;;5040459;28;20025;-77
2022/07/24 08:07:58;;;;;;;11.80;5.85;;;30.40;79.90;;;;;;5045427;28;20487;-77
2022/07/24 08:10:24;;;;;;;10.00;6.28;;;30.40;79.60;;;;;;5053337;28;20044;-78
2022/07/24 08:12:50;;;;;;;9.07;5.35;;;30.30;79.20;;;;;;5043445;28;20037;-78
2022/07/24 08:15:17;;;;;;;7.55;5.15;;;30.40;78.60;;;;;;5050173;28;20108;-78
2022/07/24 08:17:43;;;;;;;9.40;5.00;;;30.40;78.30;;;;;;5053177;28;20605;-78
2022/07/24 08:20:09;;;;;;;9.15;5.22;;;30.30;77.60;;;;;;5052043;28;20063;-77
2022/07/24 08:22:35;;;;;;;12.68;5.90;;;30.20;78.60;;;;;;5053515;28;20028;-78
2022/07/24 08:25:01;;;;;;;12.65;6.55;;;30.20;77.80;;;;;;5047401;28;20074;-77
2022/07/24 08:27:27;;;;;;;9.80;5.65;;;30.20;78.80;;;;;;5045632;28;20021;-78
2022/07/24 08:29:54;;;;;;;10.15;5.78;;;30.10;80.20;;;;;;5038294;28;20017;-78
2022/07/24 08:32:20;;;;;;;10.60;5.50;;;30.20;79.70;;;;;;5047556;28;20403;-78
2022/07/24 08:34:46;;;;;;;11.75;6.47;;;30.30;79.00;;;;;;5053309;28;20045;-77
2022/07/24 08:37:12;;;;;;;15.55;5.50;;;29.60;81.30;;;;;;5048260;28;20426;-77
2022/07/24 08:39:38;;;;;;;9.15;6.35;;;30.50;79.20;;;;;;5052865;28;20025;-77
2022/07/24 08:42:06;;;;;;;12.20;6.05;;;30.60;77.60;;;;;;5045758;28;20552;-74
2022/07/24 08:44:33;;;;;;;10.27;5.60;;;;;;;;;;5050386;28;20021;-71
2022/07/24 08:46:59;;;;;;;7.93;5.85;;;30.80;82.80;;;;;;5048677;28;20024;-77
2022/07/24 08:49:29;;;;;;;10.35;6.28;;;30.80;82.20;;;;;;5052464;28;20091;-77
2022/07/24 08:52:01;;;;;;;10.40;6.40;;;30.60;82.40;;;;;;5048116;28;20446;-77
2022/07/24 08:54:27;;;;;;;13.30;7.32;;;30.60;77.80;;;;;;5052571;28;20037;-77
2022/07/24 08:56:53;;;;;;;9.77;5.80;;;30.50;77.50;;;;;;5052110;28;20066;-77
2022/07/24 08:59:21;;;;;;;9.73;5.95;;;31.00;90.90;;;;;;5052501;28;20543;-63
2022/07/24 09:01:48;;;;;;;8.90;5.63;;;31.20;77.50;;;;;;5048379;28;20072;-63
2022/07/24 09:04:33;;;;;;;8.88;5.97;;;;;;;;;;5047238;28;20037;-77
2022/07/24 09:07:07;;;;;;;11.27;5.93;;;31.40;75.80;;;;;;5052526;28;20067;-62
2022/07/24 09:09:33;;;;;;;10.35;5.57;;;31.60;76.10;;;;;;5052124;28;20121;-78
2022/07/24 09:12:17;;;;;;;10.77;6.43;;;31.40;76.80;;;;;;5046655;28;20055;-73
2022/07/24 09:14:47;;;;;;;9.63;6.20;;;31.60;76.10;;;;;;5044911;28;20036;-77
2022/07/24 09:17:15;;;;;;;10.07;5.80;;;31.60;75.00;;;;;;5047777;28;20016;-75
2022/07/24 09:19:57;;;;;;;7.95;5.30;;;31.40;73.90;;;;;;5051762;28;20033;-77
2022/07/24 09:22:38;;;;;;;22.65;5.72;;;31.70;74.30;;;;;;5044589;28;20026;-63
2022/07/24 09:25:13;;;;;;;10.48;5.60;;;31.70;74.10;;;;;;5038489;28;20025;-77
2022/07/24 09:27:51;;;;;;;8.48;4.93;;;31.60;73.90;;;;;;5045281;28;20031;-77
2022/07/24 09:30:37;;;;;;;9.27;5.60;;;31.40;72.90;;;;;;5047135;28;20021;-70
2022/07/24 09:33:11;;;;;;;10.48;5.05;;;31.40;73.20;;;;;;5051098;28;20079;-75
2022/07/24 09:35:41;;;;;;;11.45;5.68;;;31.50;72.30;;;;;;5050292;28;20083;-77
2022/07/24 09:38:09;;;;;;;7.90;5.57;;;31.40;72.90;;;;;;5044043;28;20123;-76
2022/07/24 09:40:38;;;;;;;10.43;5.00;;;31.60;72.40;;;;;;5048244;28;20116;-77
2022/07/24 09:43:13;;;;;;;7.75;4.72;;;;;;;;;;5046211;28;20416;-74
2022/07/24 09:45:59;;;;;;;7.80;4.70;;;32.00;70.40;;;;;;5046802;28;20036;-77
2022/07/24 09:48:30;;;;;;;10.20;4.85;;;32.00;70.60;;;;;;5050559;28;20447;-77
2022/07/24 09:50:58;;;;;;;8.50;5.38;;;;;;;;;;5032939;28;20055;-73
2022/07/24 09:53:29;;;;;;;7.97;5.10;;;31.60;69.50;;;;;;5045807;28;20037;-76
2022/07/24 09:55:59;;;;;;;24.17;5.25;;;32.00;70.40;;;;;;5036363;28;20526;-75
2022/07/24 09:58:25;;;;;;;9.32;5.03;;;32.10;70.50;;;;;;5030608;28;20025;-75
2022/07/24 10:00:55;;;;;;;8.27;4.57;;;32.20;69.10;;;;;;5030384;28;20032;-73
2022/07/24 10:03:25;;;;;;;7.05;4.40;;;32.20;69.30;;;;;;5034694;28;20072;-77
2022/07/24 10:05:55;;;;;;;10.18;5.00;;;32.50;68.90;;;;;;5047782;28;20025;-77
2022/07/24 10:08:21;;;;;;;10.95;5.13;;;32.50;69.00;;;;;;5053516;28;20045;-68
2022/07/24 10:10:49;;;;;;;12.45;5.30;;;32.30;68.60;;;;;;5055791;28;20052;-81
2022/07/24 10:13:16;;;;;;;9.75;5.03;;;31.90;69.80;;;;;;5044805;28;20541;-78
2022/07/24 10:16:13;;;;;;;7.00;4.55;;;32.20;70.00;;;;;;5050608;28;20079;-77
2022/07/24 10:19:05;;;;;;;9.60;4.55;;;32.10;70.20;;;;;;5047674;28;20680;-78
2022/07/24 10:21:33;;;;;;;8.70;4.88;;;31.90;69.50;;;;;;5055889;28;20093;-77
2022/07/24 10:24:21;;;;;;;4.93;3.88;;;32.00;70.00;;;;;;5055197;28;20020;-78
2022/07/24 10:26:51;;;;;;;7.03;4.57;;;32.10;71.20;;;;;;5055276;28;20021;-77
2022/07/24 10:29:18;;;;;;;12.90;4.47;;;32.30;70.20;;;;;;5055499;28;20064;-78
2022/07/24 10:31:48;;;;;;;8.88;5.00;;;32.10;69.60;;;;;;5055703;28;20262;-79
2022/07/24 10:34:23;;;;;;;9.07;4.97;;;32.20;69.50;;;;;;5055411;28;20052;-78
2022/07/24 10:37:06;;;;;;;7.38;4.72;;;32.40;70.00;;;;;;5054388;28;20033;-78
2022/07/24 10:40:05;;;;;;;8.70;4.78;;;32.60;69.90;;;;;;5055107;28;20482;-76
2022/07/24 10:42:32;;;;;;;7.88;4.53;;;32.90;69.00;;;;;;5054567;28;20025;-79
2022/07/24 10:45:30;;;;;;;11.23;5.15;;;32.90;66.60;;;;;;5055242;28;20543;-78
2022/07/24 10:47:56;;;;;;;8.50;4.22;;;32.90;66.80;;;;;;4993650;28;20057;-76
2022/07/24 10:50:22;;;;;;;9.98;4.32;;;33.00;66.70;;;;;;4993420;28;20037;-77
2022/07/24 10:52:48;;;;;;;5.50;3.92;;;32.80;66.50;;;;;;4993144;28;20042;-75
2022/07/24 10:55:29;;;;;;;10.70;3.95;;;32.90;71.90;;;;;;4993435;28;20032;-79
2022/07/24 10:57:58;;;;;;;5.15;3.47;;;33.20;65.40;;;;;;4993487;28;20125;-77
2022/07/24 11:00:32;;;;;;;6.25;3.92;;;33.20;66.30;;;;;;4992723;28;20034;-78
2022/07/24 11:03:00;;;;;;;7.30;3.90;;;33.30;67.50;;;;;;4991782;28;20058;-76
2022/07/24 11:05:32;;;;;;;7.00;4.00;;;33.50;66.90;;;;;;4992642;28;20121;-75
2022/07/24 11:08:29;;;;;;;;;;;33.00;65.40;;;;;;4993556;28;20029;-79
2022/07/24 11:11:00;;;;;;;8.05;4.25;;;32.70;66.00;;;;;;4977684;28;19916;-76
2022/07/24 11:13:31;;;;;;;7.40;4.20;;;32.80;73.20;;;;;;4992479;28;20048;-78
2022/07/24 11:16:16;;;;;;;9.95;4.40;;;;;;;;;;4993259;28;20026;-78
2022/07/24 11:18:54;;;;;;;7.60;4.53;;;32.20;65.30;;;;;;4992765;28;20092;-74
2022/07/24 11:21:38;;;;;;;5.63;3.53;;;32.40;65.40;;;;;;4992826;28;20038;-75
2022/07/24 11:24:16;;;;;;;7.53;3.45;;;32.70;66.00;;;;;;5016149;28;20040;-73
2022/07/24 11:26:50;;;;;;;9.10;4.45;;;32.60;66.60;;;;;;5054325;28;20098;-71
2022/07/24 11:29:27;;;;;;;5.90;4.00;;;32.70;65.20;;;;;;5054470;28;20100;-75
2022/07/24 11:32:01;;;;;;;5.18;3.58;;;32.50;65.20;;;;;;5054490;28;20036;-77
2022/07/24 11:34:28;;;;;;;6.32;3.80;;;32.50;66.00;;;;;;5054407;28;20053;-77
2022/07/24 11:36:56;;;;;;;6.65;4.63;;;32.70;65.90;;;;;;5053379;28;20024;-77
2022/07/24 11:39:35;;;;;;;6.15;3.80;;;32.90;66.30;;;;;;5053992;28;20071;-78
2022/07/24 11:42:06;;;;;;;6.82;3.97;;;33.10;65.20;;;;;;5053910;28;20111;-77
2022/07/24 11:44:49;;;;;;;8.18;4.05;;;32.90;65.20;;;;;;5054414;28;20039;-75
2022/07/24 11:47:23;;;;;;;5.75;3.05;;;32.90;64.60;;;;;;5053726;28;20475;-76
2022/07/24 11:49:55;;;;;;;5.75;3.45;;;33.10;65.80;;;;;;5053779;28;20025;-75
2022/07/24 11:52:23;;;;;;;6.65;3.45;;;33.00;64.60;;;;;;5054093;28;20060;-75
2022/07/24 11:54:50;;;;;;;6.68;3.42;;;33.10;64.80;;;;;;5054008;28;20037;-74
2022/07/24 11:57:31;;;;;;;8.35;4.10;;;33.10;64.10;;;;;;5053873;28;20022;-74
2022/07/24 11:59:57;;;;;;;5.40;4.13;;;32.80;63.20;;;;;;5053825;28;20024;-76
2022/07/24 12:02:24;;;;;;;3.90;3.17;;;32.70;63.80;;;;;;5053600;28;20041;-77
2022/07/24 12:04:50;;;;;;;7.97;3.70;;;32.70;63.70;;;;;;5053478;28;20103;-77
2022/07/24 12:07:19;;;;;;;8.48;3.58;;;32.70;63.30;;;;;;5053449;28;20081;-68
2022/07/24 12:09:51;;;;;;;4.50;2.83;;;32.90;63.10;;;;;;5052756;28;20032;-75
2022/07/24 12:12:39;;;;;;;4.68;3.45;;;32.90;64.50;;;;;;5052899;28;20174;-76
2022/07/24 12:15:08;;;;;;;4.55;2.50;;;32.70;69.00;;;;;;5053169;28;20037;-78
2022/07/24 12:18:08;;;;;;;5.35;2.83;;;32.60;66.70;;;;;;5052923;28;20017;-78
2022/07/24 12:20:36;;;;;;;4.25;2.33;;;32.50;69.00;;;;;;5053297;28;20032;-79
2022/07/24 12:23:08;;;;;;;5.60;2.33;;;32.70;68.70;;;;;;5034489;28;20360;-77
2022/07/24 12:25:33;;;;;;;;;;;32.70;68.50;;;;;;5052613;28;20043;-77
2022/07/24 12:28:02;;;;;;;4.88;2.05;;;32.80;68.90;;;;;;5053208;28;19912;-77
2022/07/24 12:30:35;;;;;;;3.05;2.38;;;33.10;78.00;;;;;;5053087;28;20185;-75
2022/07/24 12:33:05;;;;;;;3.65;2.33;;;33.00;78.10;;;;;;5052839;28;20391;-75
2022/07/24 12:35:34;;;;;;;4.05;2.63;;;32.90;78.50;;;;;;5052873;28;20437;-79
2022/07/24 12:38:02;;;;;;;5.95;2.47;;;33.10;82.00;;;;;;5052870;28;20036;-80
2022/07/24 12:40:32;;;;;;;3.85;2.50;;;33.00;82.20;;;;;;5053034;28;20029;-77
2022/07/24 12:43:00;;;;;;;2.65;2.08;;;33.20;78.10;;;;;;5053630;28;20367;-75